createdAt,value
2023-02-19T00:00:20.138Z,7.37
2023-02-19T00:05:21.972Z,7.34
2023-02-19T00:10:23.749Z,7.32
2023-02-19T00:15:25.657Z,7.34
2023-02-19T00:20:27.615Z,7.38
2023-02-19T00:25:29.438Z,7.37
2023-02-19T00:30:31.533Z,7.43
2023-02-19T00:35:36.606Z,7.48
2023-02-19T00:40:39.396Z,7.46
2023-02-19T00:45:41.286Z,7.37
2023-02-19T00:50:43.590Z,7.35
2023-02-19T00:55:45.379Z,7.35
2023-02-19T01:00:47.362Z,7.34
2023-02-19T01:05:52.729Z,7.18
2023-02-19T01:10:54.588Z,6.95
2023-02-19T01:16:12.742Z,6.86
2023-02-19T01:21:18.285Z,6.81
2023-02-19T01:26:23.578Z,6.77
2023-02-19T01:31:25.896Z,6.77
2023-02-19T01:36:29.656Z,6.77
2023-02-19T01:41:34.411Z,6.77
2023-02-19T01:46:38.925Z,6.78
2023-02-19T01:51:49.363Z,6.80
2023-02-19T01:56:55.397Z,6.81
2023-02-19T02:01:57.309Z,6.86
2023-02-19T02:07:02.417Z,6.87
2023-02-19T02:12:04.638Z,6.88
2023-02-19T02:17:18.847Z,6.88
2023-02-19T02:22:33.905Z,6.88
2023-02-19T02:27:52.441Z,6.88
2023-02-19T02:32:58.325Z,6.89
2023-02-19T02:38:05.241Z,6.88
2023-02-19T02:43:07.461Z,6.87
2023-02-19T02:48:21.405Z,6.87
2023-02-19T02:53:51.912Z,6.90
2023-02-19T02:58:56.827Z,6.91
2023-02-19T03:04:05.105Z,6.93
2023-02-19T03:09:16.156Z,6.96
2023-02-19T03:14:59.955Z,7.00
2023-02-19T03:20:07.552Z,7.03
2023-02-19T03:25:33.327Z,7.10
2023-02-19T03:30:40.884Z,7.21
2023-02-19T03:36:05.853Z,7.27
2023-02-19T03:41:27.310Z,7.37
2023-02-19T03:47:04.580Z,7.39
2023-02-19T03:52:31.065Z,7.43
2023-02-19T03:57:56.288Z,7.50
2023-02-19T04:03:16.877Z,7.56
2023-02-19T04:08:22.369Z,7.54
2023-02-19T04:13:38.765Z,7.59
2023-02-19T04:18:45.251Z,7.42
2023-02-19T04:23:48.010Z,7.25
2023-02-19T04:28:49.839Z,7.22
2023-02-19T04:33:51.636Z,7.25
2023-02-19T04:38:53.451Z,7.27
2023-02-19T04:43:55.289Z,7.25
2023-02-19T04:48:57.071Z,7.25
2023-02-19T04:53:58.907Z,7.22
2023-02-19T04:59:00.756Z,7.20
2023-02-19T05:04:04.622Z,7.19
2023-02-19T05:09:06.398Z,7.25
2023-02-19T05:14:08.258Z,7.30
2023-02-19T05:19:13.748Z,7.38
2023-02-19T05:24:15.607Z,7.43
2023-02-19T05:29:17.434Z,7.32
2023-02-19T05:34:19.209Z,7.17
2023-02-19T05:39:21.017Z,7.08
2023-02-19T05:44:22.879Z,7.03
2023-02-19T05:49:24.725Z,7.06
2023-02-19T05:54:29.549Z,7.10
2023-02-19T05:59:31.675Z,7.09
2023-02-19T06:04:33.528Z,7.09
2023-02-19T06:09:35.319Z,7.05
2023-02-19T06:14:37.097Z,7.09
2023-02-19T06:19:38.887Z,7.11
2023-02-19T06:24:40.679Z,7.00
2023-02-19T06:29:42.534Z,6.95
2023-02-19T06:34:44.303Z,6.90
2023-02-19T06:39:46.121Z,6.85
2023-02-19T06:44:47.916Z,6.79
2023-02-19T06:49:49.715Z,6.82
2023-02-19T06:54:51.537Z,6.74
2023-02-19T06:59:53.339Z,6.71
2023-02-19T07:04:55.137Z,6.61
2023-02-19T07:09:56.941Z,6.54
2023-02-19T07:14:58.744Z,6.50
2023-02-19T07:20:00.637Z,6.51
2023-02-19T07:25:02.450Z,6.51
2023-02-19T07:30:04.805Z,6.58
2023-02-19T07:35:07.108Z,6.64
2023-02-19T07:40:09.098Z,6.71
2023-02-19T07:45:10.938Z,6.69
2023-02-19T07:50:14.046Z,6.60
2023-02-19T07:55:15.923Z,6.63
2023-02-19T08:00:19.186Z,6.56
2023-02-19T08:05:20.953Z,6.52
2023-02-19T08:10:41.715Z,6.50
2023-02-19T08:15:43.910Z,6.42
2023-02-19T08:20:46.215Z,6.40
2023-02-19T08:25:49.751Z,6.43
2023-02-19T08:30:51.884Z,6.50
2023-02-19T08:35:53.742Z,6.52
2023-02-19T08:40:55.515Z,6.54
2023-02-19T08:45:57.382Z,6.53
2023-02-19T08:51:03.891Z,6.52
2023-02-19T08:56:12.056Z,6.61
2023-02-19T09:01:16.447Z,6.13
2023-02-19T09:06:20.458Z,5.46
2023-02-19T09:11:22.299Z,5.48
2023-02-19T09:16:24.126Z,5.46
2023-02-19T09:21:26.001Z,5.21
2023-02-19T09:26:27.776Z,4.92
2023-02-19T09:31:29.648Z,4.93
2023-02-19T09:36:33.470Z,4.58
2023-02-19T09:41:47.119Z,4.33
2023-02-19T09:46:51.781Z,4.25
2023-02-19T09:51:59.083Z,4.11
2023-02-19T09:57:02.892Z,4.31
2023-02-19T10:02:30.903Z,4.32
2023-02-19T10:07:43.470Z,3.96
2023-02-19T10:12:51.227Z,3.96
2023-02-19T10:17:53.146Z,3.81
2023-02-19T10:23:02.489Z,3.69
2023-02-19T10:28:06.350Z,3.50
2023-02-19T10:33:14.901Z,3.32
2023-02-19T10:38:18.781Z,3.45
2023-02-19T10:43:31.197Z,3.46
2023-02-19T10:48:37.447Z,3.23
2023-02-19T10:53:50.691Z,3.21
2023-02-19T10:58:53.073Z,3.22
2023-02-19T11:04:18.006Z,3.51
2023-02-19T11:09:31.027Z,4.00
2023-02-19T11:14:34.420Z,4.62
2023-02-19T11:19:42.960Z,4.50
2023-02-19T11:24:49.539Z,4.66
2023-02-19T11:29:51.411Z,4.40
2023-02-19T11:35:23.120Z,4.46
2023-02-19T11:41:11.698Z,4.40
2023-02-19T11:46:18.330Z,4.30
2023-02-19T11:52:00.342Z,4.86
2023-02-19T11:57:17.195Z,5.39
2023-02-19T12:02:57.627Z,5.17
2023-02-19T12:08:15.436Z,4.69
2023-02-19T12:13:38.118Z,4.59
2023-02-19T12:18:45.775Z,4.73
2023-02-19T12:23:47.528Z,4.84
2023-02-19T12:29:07.922Z,5.18
2023-02-19T12:34:24.056Z,5.45
2023-02-19T12:39:58.421Z,5.46
2023-02-19T12:45:16.124Z,4.94
2023-02-19T12:50:27.190Z,5.38
2023-02-19T12:55:34.193Z,5.34
2023-02-19T13:00:41.399Z,5.63
2023-02-19T13:05:55.870Z,5.57
2023-02-19T13:11:09.908Z,5.54
2023-02-19T13:16:18.632Z,5.30
2023-02-19T13:21:42.716Z,5.47
2023-02-19T13:27:04.756Z,5.41
2023-02-19T13:32:06.641Z,5.32
2023-02-19T13:37:09.756Z,5.55
2023-02-19T13:42:31.215Z,5.17
2023-02-19T13:48:00.353Z,5.35
2023-02-19T13:53:22.667Z,5.49
2023-02-19T13:58:33.789Z,5.71
2023-02-19T14:03:54.253Z,5.39
2023-02-19T14:08:58.504Z,5.12
2023-02-19T14:14:06.527Z,5.13
2023-02-19T14:19:15.998Z,5.39
2023-02-19T14:24:17.883Z,5.53
2023-02-19T14:29:19.859Z,6.12
2023-02-19T14:34:26.998Z,5.64
2023-02-19T14:39:35.275Z,5.65
2023-02-19T14:44:59.063Z,5.40
2023-02-19T14:50:02.957Z,5.79
2023-02-19T14:55:13.440Z,5.75
2023-02-19T15:00:39.913Z,5.43
2023-02-19T15:05:44.933Z,5.42
2023-02-19T15:10:47.056Z,4.98
2023-02-19T15:15:49.774Z,4.67
2023-02-19T15:20:58.649Z,4.98
2023-02-19T15:26:00.521Z,5.21
2023-02-19T15:31:03.319Z,5.33
2023-02-19T15:36:07.840Z,5.29
2023-02-19T15:41:21.251Z,5.16
2023-02-19T15:46:25.513Z,4.84
2023-02-19T15:51:37.658Z,4.34
2023-02-19T15:56:45.447Z,3.89
2023-02-19T16:01:48.046Z,3.51
2023-02-19T16:06:56.186Z,3.28
2023-02-19T16:12:00.730Z,3.01
2023-02-19T16:17:12.139Z,2.82
2023-02-19T16:22:18.768Z,2.56
2023-02-19T16:27:46.908Z,2.31
2023-02-19T16:32:48.745Z,2.09
2023-02-19T16:38:00.089Z,1.88
2023-02-19T16:43:13.983Z,1.52
2023-02-19T16:48:23.644Z,1.13
2023-02-19T16:53:25.533Z,0.97
2023-02-19T16:58:27.473Z,0.82
2023-02-19T17:03:29.320Z,0.77
2023-02-19T17:08:46.371Z,0.95
2023-02-19T17:13:48.202Z,0.96
2023-02-19T17:18:50.914Z,0.73
2023-02-19T17:23:54.036Z,0.30
2023-02-19T17:28:57.282Z,0.14
2023-02-19T17:33:59.145Z,-0.07
2023-02-19T17:39:02.956Z,-0.26
2023-02-19T17:44:04.780Z,-0.38
2023-02-19T17:49:07.555Z,-0.38
2023-02-19T17:54:09.509Z,-0.45
2023-02-19T17:59:11.731Z,-0.59
2023-02-19T18:04:13.601Z,-0.64
2023-02-19T18:09:18.091Z,-0.69
2023-02-19T18:14:20.132Z,-0.88
2023-02-19T18:19:22.922Z,-0.74
2023-02-19T18:24:24.776Z,-0.81
2023-02-19T18:29:28.962Z,-0.87
2023-02-19T18:34:30.848Z,-0.42
2023-02-19T18:39:33.202Z,0.19
2023-02-19T18:44:35.036Z,0.41
2023-02-19T18:49:36.952Z,0.38
2023-02-19T18:54:38.910Z,0.37
2023-02-19T18:59:41.902Z,0.41
2023-02-19T19:04:49.228Z,0.37
2023-02-19T19:09:51.079Z,0.07
2023-02-19T19:14:53.392Z,0.00
2023-02-19T19:19:56.431Z,-0.02
2023-02-19T19:24:58.230Z,-0.14
2023-02-19T19:30:00.277Z,-0.29
2023-02-19T19:35:02.191Z,-0.29
2023-02-19T19:40:04.372Z,-0.41
2023-02-19T19:45:06.897Z,-0.39
2023-02-19T19:50:09.621Z,-0.39
2023-02-19T19:55:11.548Z,-0.50
2023-02-19T20:00:17.713Z,-0.61
2023-02-19T20:05:19.629Z,-0.73
2023-02-19T20:10:21.587Z,-0.97
2023-02-19T20:15:23.743Z,-1.05
2023-02-19T20:20:25.533Z,-1.05
2023-02-19T20:25:27.542Z,-0.98
2023-02-19T20:30:29.404Z,-0.81
2023-02-19T20:35:31.899Z,-0.63
2023-02-19T20:40:33.901Z,-0.41
2023-02-19T20:45:35.749Z,-0.31
2023-02-19T20:50:37.552Z,-0.03
2023-02-19T20:55:39.476Z,0.20
2023-02-19T21:00:41.345Z,0.18
2023-02-19T21:05:43.409Z,0.27
2023-02-19T21:10:46.474Z,0.46
2023-02-19T21:15:48.305Z,0.48
2023-02-19T21:20:50.097Z,0.64
2023-02-19T21:25:54.440Z,0.76
2023-02-19T21:30:56.510Z,0.78
2023-02-19T21:35:58.621Z,0.75
2023-02-19T21:41:00.456Z,0.83
2023-02-19T21:46:02.317Z,0.85
2023-02-19T21:51:04.315Z,0.97
2023-02-19T21:56:06.450Z,0.94
2023-02-19T22:01:08.809Z,1.01
2023-02-19T22:06:10.926Z,1.26
2023-02-19T22:11:12.911Z,1.55
2023-02-19T22:16:16.339Z,1.77
2023-02-19T22:21:19.026Z,1.90
2023-02-19T22:26:26.768Z,1.93
2023-02-19T22:31:28.827Z,1.90
2023-02-19T22:36:33.303Z,1.89
2023-02-19T22:41:35.591Z,2.06
2023-02-19T22:46:37.522Z,2.17
2023-02-19T22:51:46.449Z,2.36
2023-02-19T22:56:48.264Z,2.28
2023-02-19T23:01:50.559Z,2.48
2023-02-19T23:06:52.518Z,2.49
2023-02-19T23:12:02.099Z,2.36
2023-02-19T23:17:04.060Z,2.44
2023-02-19T23:22:05.985Z,2.44
2023-02-19T23:27:07.894Z,2.51
2023-02-19T23:32:09.756Z,2.51
2023-02-19T23:37:11.564Z,2.58
2023-02-19T23:42:16.667Z,2.74
2023-02-19T23:47:18.728Z,2.82
2023-02-19T23:52:20.629Z,2.80
2023-02-19T23:57:22.411Z,2.84
